MBW weather

Melbourne Moorabbin Airport
Melbourne, Victoria, Australia

Public forecast

Using degrees Celsius for public forecast. Weather courtesy of forecast.io.

METAR (pilot weather report)

Closest report is Melbourne Essendon Airport, 17.6 nm (32.7 km) NNW. Retrieved 2018/02/21 13:00 UTC (14 minutes ago):

YMEN 211300Z AUTO 07001KT 9999 // NCD 22/11 Q1014

TAF (pilot weather forecast)

Closest forecast is Melbourne International Airport, 21.9 nm (40.6 km) NW. Retrieved 2018/02/21 12:33 UTC (41 minutes ago):

TAF YMML 211108Z 2112/2218 02008KT CAVOK FM211500 02010KT 9999 -RA NSC BECMG 2205/2206 19008KT 9999 -RA NSC FM221100 28005KT 9999 -RA NSC